地図

経路データ

SID SEASON NUMBER BASIN SUBBASIN NAME ISO_TIME NATURE LAT LON WMO_WIND WMO_PRES WMO_AGENCY TRACK_TYPE DIST2LAND LANDFALL IFLAG USA_AGENCY USA_ATCF_ID USA_LAT USA_LON USA_RECORD USA_STATUS USA_WIND USA_PRES USA_SSHS USA_R34_NE USA_R34_SE USA_R34_SW USA_R34_NW USA_R50_NE USA_R50_SE USA_R50_SW USA_R50_NW USA_R64_NE USA_R64_SE USA_R64_SW USA_R64_NW USA_POCI USA_ROCI USA_RMW USA_EYE TOKYO_LAT TOKYO_LON TOKYO_GRADE TOKYO_WIND TOKYO_PRES TOKYO_R50_DIR TOKYO_R50_LONG TOKYO_R50_SHORT TOKYO_R30_DIR TOKYO_R30_LONG TOKYO_R30_SHORT TOKYO_LAND CMA_LAT CMA_LON CMA_CAT CMA_WIND CMA_PRES HKO_LAT HKO_LON HKO_CAT HKO_WIND HKO_PRES NEWDELHI_LAT NEWDELHI_LON NEWDELHI_GRADE NEWDELHI_WIND NEWDELHI_PRES NEWDELHI_CI NEWDELHI_DP NEWDELHI_POCI REUNION_LAT REUNION_LON REUNION_TYPE REUNION_WIND REUNION_PRES REUNION_TNUM REUNION_CI REUNION_RMW REUNION_R34_NE REUNION_R34_SE REUNION_R34_SW REUNION_R34_NW REUNION_R50_NE REUNION_R50_SE REUNION_R50_SW REUNION_R50_NW REUNION_R64_NE REUNION_R64_SE REUNION_R64_SW REUNION_R64_NW BOM_LAT BOM_LON BOM_TYPE BOM_WIND BOM_PRES BOM_TNUM BOM_CI BOM_RMW BOM_R34_NE BOM_R34_SE BOM_R34_SW BOM_R34_NW BOM_R50_NE BOM_R50_SE BOM_R50_SW BOM_R50_NW BOM_R64_NE BOM_R64_SE BOM_R64_SW BOM_R64_NW BOM_ROCI BOM_POCI BOM_EYE BOM_POS_METHOD BOM_PRES_METHOD NADI_LAT NADI_LON NADI_CAT NADI_WIND NADI_PRES WELLINGTON_LAT WELLINGTON_LON WELLINGTON_WIND WELLINGTON_PRES DS824_LAT DS824_LON DS824_STAGE DS824_WIND DS824_PRES TD9636_LAT TD9636_LON TD9636_STAGE TD9636_WIND TD9636_PRES TD9635_LAT TD9635_LON TD9635_WIND TD9635_PRES TD9635_ROCI NEUMANN_LAT NEUMANN_LON NEUMANN_CLASS NEUMANN_WIND NEUMANN_PRES MLC_LAT MLC_LON MLC_CLASS MLC_WIND MLC_PRES USA_GUST BOM_GUST BOM_GUST_PER REUNION_GUST REUNION_GUST_PER USA_SEAHGT USA_SEARAD_NE USA_SEARAD_SE USA_SEARAD_SW USA_SEARAD_NW STORM_SPEED STORM_DIR
1975346S09101 1976 146 SI WA SUE 1975-12-12 00:00:00 TS -9.24000 100.560 20 1004 bom main 573 546 O_____O__OO___ jtwc_sh SH071976 -9.20000 100.600 -1 -9.30000 100.500 20 20 1004 0.500000 0.500000 -9.30000 100.500 TC 20 1004 -9.20000 100.600 4 10 107
1975346S09101 1976 146 SI WA SUE 1975-12-12 03:00:00 TS -9.38711 101.046 20 1003 bom main 546 507 P_____O__PP___ SH071976 -9.39767 101.155 -1 -9.40000 100.900 20 20 1003 1.00000 -9.33010 100.863 TC 22 1003 -9.41014 101.157 4 10 107
1975346S09101 1976 146 SI WA SUE 1975-12-12 06:00:00 TS -9.52172 101.500 20 1002 bom main 507 487 O_____O__OP_O_ jtwc_sh SH071976 -9.60000 101.700 -1 -9.40000 101.200 20 20 1002 1.00000 -9.40000 101.200 TC 25 1002 -9.61585 101.702 4 -9.50000 101.500 TC 25 1002 9 109
1975346S09101 1976 146 SI WA SUE 1975-12-12 09:00:00 TS -9.69314 101.935 25 1002 bom main 487 463 P_____O__PP_P_ SH071976 -9.80745 102.223 -1 -9.50000 101.500 20 25 1002 1.50000 -9.53493 101.500 TC 25 1002 -9.81361 102.221 4 -9.69763 101.957 TC 25 1002 9 113
1975346S09101 1976 146 SI WA SUE 1975-12-12 12:00:00 TS -9.88261 102.348 25 1002 bom main 471 451 O_____O__OO_O_ jtwc_sh SH071976 -10.0000 102.700 -1 -9.70000 101.800 20 25 1002 1.50000 -9.70000 101.800 TC 25 1002 -10.0000 102.700 4 -9.90000 102.400 TC 25 1002 9 114
1975346S09101 1976 146 SI WA SUE 1975-12-12 15:00:00 TS -10.0587 102.760 25 1002 bom main 454 441 P_____O__PP_P_ SH071976 -10.1574 103.130 -1 -9.90000 102.200 20 25 1002 1.50000 -9.85753 102.157 TC 25 1002 -10.1722 103.129 4 -10.1074 102.815 TC 25 1002 8 113
1975346S09101 1976 146 SI WA SUE 1975-12-12 18:00:00 TS -10.2050 103.118 25 1002 bom main 445 439 O_____O__OP_O_ jtwc_sh SH071976 -10.3000 103.500 -1 -10.0000 102.500 20 25 1002 1.50000 -10.0000 102.500 TC 25 1002 -10.3297 103.505 4 -10.3000 103.200 TC 25 1002 7 113
1975346S09101 1976 146 SI WA SUE 1975-12-12 21:00:00 TS -10.3420 103.435 25 1002 bom main 439 434 P_____O__PP_P_ SH071976 -10.4575 103.830 -1 -10.1000 102.800 20 25 1002 1.50000 -10.1074 102.765 TC 27 1001 -10.4723 103.829 4 -10.4574 103.558 TC 25 1001 6 115
1975346S09101 1976 146 SI WA SUE 1975-12-13 00:00:00 TS -10.4667 103.700 25 1001 bom main 446 438 O_____O__OO_O_ jtwc_sh SH071976 -10.6000 104.100 -1 -10.2000 103.000 20 25 1001 1.50000 -10.2000 103.000 TC 30 1001 -10.6000 104.100 4 -10.6000 103.900 TC 25 1001 6 115
1975346S09101 1976 146 SI WA SUE 1975-12-13 03:00:00 TS -10.5818 103.964 25 1001 bom main 445 438 P_____O__PP_P_ SH071976 -10.7075 104.323 -1 -10.3000 103.300 20 25 1001 1.50000 1.50000 -10.3000 103.250 TC 30 1001 -10.7182 104.317 4 -10.7575 104.272 TC 25 1001 5 115
1975346S09101 1976 146 SI WA SUE 1975-12-13 06:00:00 TS -10.6870 104.181 25 1001 bom main 441 435 O_____O__OP_O_ jtwc_sh SH071976 -10.8000 104.500 -1 -10.4000 103.500 20 25 1001 1.50000 -10.4000 103.500 TC 30 1001 -10.8222 104.488 4 -10.9000 104.600 TC 25 1001 5 117
1975346S09101 1976 146 SI WA SUE 1975-12-13 09:00:00 TS -10.7883 104.385 25 1001 bom main 439 434 P_____O__PP_P_ SH071976 -10.9000 104.650 -1 -10.5000 103.800 20 25 1001 2.00000 -10.5000 103.750 TC 30 1001 -10.9151 104.639 4 -11.0149 104.823 TC 25 1001 4 117
1975346S09101 1976 146 SI WA SUE 1975-12-13 12:00:00 TS -10.8833 104.567 25 1001 bom main 439 434 O_____O__OO_O_ jtwc_sh SH071976 -11.0000 104.800 -1 -10.6000 104.000 20 25 1001 2.00000 -10.6000 104.000 TC 30 1001 -11.0000 104.800 4 -11.1000 105.000 TC 25 1001 4 116
1975346S09101 1976 146 SI WA SUE 1975-12-13 15:00:00 TS -10.9777 104.778 30 1000 bom main 439 435 P_____O__PP_P_ SH071976 -11.1075 104.985 -1 -10.7000 104.300 20 30 1000 2.50000 -10.7000 104.250 TC 32 999 -11.0939 104.946 4 -11.1575 105.200 TC 30 999 5 114
1975346S09101 1976 146 SI WA SUE 1975-12-13 18:00:00 TS -11.0632 104.986 35 998 bom main 442 434 O_____O__OP_O_ jtwc_sh SH071976 -11.2000 105.200 -1 -10.8000 104.500 30 35 998 2.50000 -10.8000 104.500 TC 35 998 -11.1791 105.115 4 -11.2000 105.400 TC 35 998 4 111
1975346S09101 1976 146 SI WA SUE 1975-12-13 21:00:00 TS -11.1332 105.188 35 996 bom main 434 434 P_____O__PP_P_ SH071976 -11.2573 105.398 -1 -10.9000 104.700 30 35 996 3.00000 -10.8848 104.690 TC 37 996 -11.2498 105.352 4 -11.2500 105.593 TC 37 996 5 106
1975346S09101 1976 146 SI WA SUE 1975-12-14 00:00:00 TS -11.2000 105.483 40 994 bom main 436 432 O_____O__OO_O_ jtwc_sh SH071976 -11.3000 105.700 -1 -11.0000 105.000 30 40 994 3.00000 3.00000 -11.0000 105.000 TC 40 994 -11.3000 105.700 4 -11.3000 105.800 TC 40 995 8 103
1975346S09101 1976 146 SI WA SUE 1975-12-14 03:00:00 TS -11.3056 105.971 40 994 bom main 439 437 P_____O__PP_P_ SH071976 -11.3650 106.182 -1 -11.2000 105.600 30 40 994 3.00000 -11.2152 105.597 TC 40 994 -11.3387 106.238 4 -11.3500 106.028 TC 40 994 11 100
1975346S09101 1976 146 SI WA SUE 1975-12-14 06:00:00 TS -11.3923 106.564 40 994 bom main 434 421 O_____O__OP_O_ jtwc_sh SH071976 -11.4000 106.800 -1 -11.4000 106.300 30 40 994 3.00000 -11.4000 106.300 TC 40 994 -11.3538 106.882 4 -11.4000 106.300 TC 40 994 12 95
1975346S09101 1976 146 SI WA SUE 1975-12-14 09:00:00 TS -11.4008 107.170 40 995 bom main 419 410 P_____O__PP_P_ SH071976 -11.3728 107.523 -1 -11.4000 106.900 30 40 995 3.00000 -11.4449 106.915 TC 37 996 -11.3418 107.560 4 -11.4723 106.597 TC 37 995 12 89
1975346S09101 1976 146 SI WA SUE 1975-12-14 12:00:00 TS -11.3667 107.767 40 998 bom main 408 392 O_____O__OO_O_ jtwc_sh SH071976 -11.3000 108.200 -1 -11.4000 107.500 30 40 998 3.00000 -11.4000 107.500 TC 35 998 -11.3000 108.200 4 -11.5000 107.000 TC 35 997 11 84
1975346S09101 1976 146 SI WA SUE 1975-12-14 15:00:00 TS -11.2836 108.274 40 1001 bom main 392 380 P_____O__PP_P_ SH071976 -11.2072 108.630 -1 -11.3000 108.200 30 40 1001 3.00000 -11.3222 108.035 TC 32 999 -11.2348 108.603 4 -11.4300 107.548 TC 32 998 10 78
1975346S09101 1976 146 SI WA SUE 1975-12-14 18:00:00 TS -11.1736 108.729 40 1000 bom main 382 364 O_____O__OP_O_ jtwc_sh SH071976 -11.1000 109.000 -1 -11.2000 108.600 30 40 1000 3.00000 -11.2000 108.600 TC 30 1000 -11.1418 108.972 4 -11.3000 108.200 TC 30 1000 10 77
1975346S09101 1976 146 SI WA SUE 1975-12-14 21:00:00 TS -11.0503 109.271 40 1001 bom main 359 314 P_____O__PP_P_ SH071976 -11.0070 109.410 -1 -11.0000 109.300 30 40 1001 3.00000 -11.0798 109.255 TC 27 1001 -11.0281 109.406 4 -11.1796 108.847 TC 27 1001 12 78
1975346S09101 1976 146 SI WA SUE 1975-12-15 00:00:00 TS -10.9167 109.933 40 1003 bom main 314 272 O_____O__OO_O_ jtwc_sh SH071976 -10.9000 110.000 -1 -10.9000 110.000 30 40 1003 3.00000 -10.9000 110.000 TC 25 1003 -10.9000 110.000 4 -11.0000 109.600 TC 25 1002 16 76
1975346S09101 1976 146 SI WA SUE 1975-12-15 03:00:00 TS -10.6602 110.808 40 1003 bom main 272 235 P_____O__PP_P_ SH071976 -10.7576 110.910 -1 -10.5000 110.800 30 40 1003 3.00000 3.00000 -10.5848 110.813 TC 25 1002 -10.6685 110.901 4 -10.6925 110.513 TC 25 1002 19 75
1975346S09101 1976 146 SI WA SUE 1975-12-15 06:00:00 TS -10.4395 111.810 40 1002 bom main 224 212 O_____O__OP_O_ jtwc_sh SH071976 -10.6000 112.000 -1 -10.3000 111.700 30 40 1002 3.00000 -10.3000 111.700 TC 25 1002 -10.4372 111.962 4 -10.4000 111.500 TC 25 1002 20 79
1975346S09101 1976 146 SI WA SUE 1975-12-15 09:00:00 TS -10.2740 112.830 40 1003 bom main 213 179 P_____O__PP_P_ SH071976 -10.3900 113.108 -1 -10.2000 112.600 30 40 1003 3.00000 -10.1598 112.628 TC 22 1003 -10.2870 113.092 4 -10.2172 112.443 TC 25 1002 20 85
1975346S09101 1976 146 SI WA SUE 1975-12-15 12:00:00 TS -10.2500 113.867 35 1004 bom main 174 168 O_____O__OO_O_ jtwc_sh SH071976 -10.3000 114.200 -1 -10.2000 113.600 30 35 1004 3.00000 -10.2000 113.600 TC 20 1004 -10.3000 114.200 4 -10.2000 113.400 TC 25 1003 20 94
1975346S09101 1976 146 SI WA SUE 1975-12-15 15:00:00 TS -10.4206 114.855 35 1005 bom main 180 180 P_____O__PP_P_ SH071976 -10.4296 115.180 -1 -10.3000 114.600 30 35 1005 2.50000 -10.4395 114.562 TC 20 1004 -10.5351 115.217 4 -10.3898 114.392 TC 22 1003 20 101
1975346S09101 1976 146 SI WA SUE 1975-12-15 15:30:00 TS -10.4792 115.023 35 bom main 190 190 P_____I__PP_P_ SH071976 -10.4746 115.336 -1 -10.4000 114.800 30 35 1004 2.50000 -10.4952 114.728 TC 20 1004 -10.5939 115.378 4 -10.4372 114.560 TC 22 1003 21 112
1975346S09101 1976 146 SI WA SUE 1975-12-15 18:00:00 TS -10.8091 115.826 30 1004 bom main 212 208 O_____O__OP_O_ jtwc_sh SH071976 -10.8000 116.100 -1 -10.8000 115.600 20 30 1004 2.50000 -10.8000 115.600 TC 20 1004 -10.9548 116.154 4 -10.7000 115.400 TC 20 1004 21 115
1975346S09101 1976 146 SI WA SUE 1975-12-15 21:00:00 TS -11.2909 116.834 30 1004 bom main 247 246 P_____O__PP_P_ SH071976 -11.3906 117.001 -1 -11.3000 116.800 20 30 1004 2.00000 -11.1587 116.762 TC 20 1004 -11.4973 117.039 4 -11.0081 116.402 TC 20 1004 22 116
1975346S09101 1976 146 SI WA SUE 1975-12-16 00:00:00 TS -11.7667 117.850 25 1005 bom main 269 O_____O__OO_O_ jtwc_sh SH071976 -12.1000 117.900 -1 -11.5000 118.000 20 25 1005 2.00000 2.00000 -11.5000 118.000 TC 20 1005 -12.1000 117.900 4 -11.3000 117.400 TC 20 1004 22 116

IBTrACS Databaseについて

本データベースは、米国NOAAが公開する1842年以降の世界の熱帯低気圧のベストトラックデータアーカイブInternational Best Track Archive for Climate Stewardship (IBTrACS)を、ウェブで閲覧しやすい形式に変換したものです。

最終更新日:2021-10-21